Malvina, Mississippi
Current Conditions -  °F | °C
As of 3:15 AM on Monday 22 Dec 2014 (Local Time) from KRNV Reporting Station
Haze Haze  
Wind Chill: 45°   Ceiling: 300
Heat Index: 49°   Visibility: 5mi
Dew Point: 49°   Wind: 10mph
Humidity: 100%   Direction: 170°S
Pressure: 29.86"   Gusts: NA
Location:  33.8277°N, 90.9559°W
Report Text: KRNV 220915Z AUTO 17009KT 5SM BR OVC003 10/10 A2986 RMK AO2 T00950095
Loading
Personal Weather Stations






























Interactive Weather Map New forecast layout! Learn more

10-Day Weather Forecast

Advertisements
Track Severe Weather on mobile